sensor_id;sensor_type;location;lat;lon;timestamp;P1;durP1;ratioP1;P2;durP2;ratioP2
15841;SDS011;8021;48.022;11.812;2023-04-06T00:01:45;0.60;;;0.60;;
15841;SDS011;8021;48.022;11.812;2023-04-06T00:04:13;0.70;;;0.70;;
15841;SDS011;8021;48.022;11.812;2023-04-06T00:06:40;0.60;;;0.60;;
15841;SDS011;8021;48.022;11.812;2023-04-06T00:09:08;0.70;;;0.70;;
15841;SDS011;8021;48.022;11.812;2023-04-06T00:11:36;0.70;;;0.70;;
15841;SDS011;8021;48.022;11.812;2023-04-06T00:14:03;0.87;;;0.87;;
15841;SDS011;8021;48.022;11.812;2023-04-06T00:16:32;0.67;;;0.67;;
15841;SDS011;8021;48.022;11.812;2023-04-06T00:18:59;0.80;;;0.80;;
15841;SDS011;8021;48.022;11.812;2023-04-06T00:21:27;0.70;;;0.70;;
15841;SDS011;8021;48.022;11.812;2023-04-06T00:23:55;0.73;;;0.73;;
15841;SDS011;8021;48.022;11.812;2023-04-06T00:26:23;0.60;;;0.60;;
15841;SDS011;8021;48.022;11.812;2023-04-06T00:28:53;0.70;;;0.70;;
15841;SDS011;8021;48.022;11.812;2023-04-06T00:31:20;0.70;;;0.70;;
15841;SDS011;8021;48.022;11.812;2023-04-06T00:33:50;0.80;;;0.80;;
15841;SDS011;8021;48.022;11.812;2023-04-06T00:36:17;0.70;;;0.70;;
15841;SDS011;8021;48.022;11.812;2023-04-06T00:38:45;0.80;;;0.80;;
15841;SDS011;8021;48.022;11.812;2023-04-06T00:41:13;0.70;;;0.70;;
15841;SDS011;8021;48.022;11.812;2023-04-06T00:43:41;0.80;;;0.80;;
15841;SDS011;8021;48.022;11.812;2023-04-06T00:46:08;0.87;;;0.87;;
15841;SDS011;8021;48.022;11.812;2023-04-06T00:48:36;0.90;;;0.90;;
15841;SDS011;8021;48.022;11.812;2023-04-06T00:51:05;0.77;;;0.77;;
15841;SDS011;8021;48.022;11.812;2023-04-06T00:53:33;0.77;;;0.77;;
15841;SDS011;8021;48.022;11.812;2023-04-06T00:56:01;0.80;;;0.80;;
15841;SDS011;8021;48.022;11.812;2023-04-06T00:58:37;0.77;;;0.77;;
15841;SDS011;8021;48.022;11.812;2023-04-06T01:01:07;0.90;;;0.90;;
15841;SDS011;8021;48.022;11.812;2023-04-06T01:03:35;0.90;;;0.90;;
15841;SDS011;8021;48.022;11.812;2023-04-06T01:06:03;0.80;;;0.80;;
15841;SDS011;8021;48.022;11.812;2023-04-06T01:08:37;0.77;;;0.77;;
15841;SDS011;8021;48.022;11.812;2023-04-06T01:11:25;0.80;;;0.80;;
15841;SDS011;8021;48.022;11.812;2023-04-06T01:13:53;0.63;;;0.63;;
15841;SDS011;8021;48.022;11.812;2023-04-06T01:16:27;0.90;;;0.90;;
15841;SDS011;8021;48.022;11.812;2023-04-06T01:19:07;0.80;;;0.80;;
15841;SDS011;8021;48.022;11.812;2023-04-06T01:21:35;0.60;;;0.60;;
15841;SDS011;8021;48.022;11.812;2023-04-06T01:24:26;0.90;;;0.90;;
15841;SDS011;8021;48.022;11.812;2023-04-06T01:27:07;0.67;;;0.67;;
15841;SDS011;8021;48.022;11.812;2023-04-06T01:29:51;0.67;;;0.67;;
15841;SDS011;8021;48.022;11.812;2023-04-06T01:32:32;0.90;;;0.90;;
15841;SDS011;8021;48.022;11.812;2023-04-06T01:35:00;0.70;;;0.70;;
15841;SDS011;8021;48.022;11.812;2023-04-06T01:37:29;0.80;;;0.80;;
15841;SDS011;8021;48.022;11.812;2023-04-06T01:40:03;0.80;;;0.80;;
15841;SDS011;8021;48.022;11.812;2023-04-06T01:42:40;0.87;;;0.87;;
15841;SDS011;8021;48.022;11.812;2023-04-06T01:45:10;0.80;;;0.80;;
15841;SDS011;8021;48.022;11.812;2023-04-06T01:47:38;0.70;;;0.70;;
15841;SDS011;8021;48.022;11.812;2023-04-06T01:50:06;0.70;;;0.70;;
15841;SDS011;8021;48.022;11.812;2023-04-06T01:52:39;0.80;;;0.80;;
15841;SDS011;8021;48.022;11.812;2023-04-06T01:55:10;0.83;;;0.83;;
15841;SDS011;8021;48.022;11.812;2023-04-06T01:57:56;0.77;;;0.77;;
15841;SDS011;8021;48.022;11.812;2023-04-06T02:00:36;0.80;;;0.80;;
15841;SDS011;8021;48.022;11.812;2023-04-06T02:03:05;0.70;;;0.70;;
15841;SDS011;8021;48.022;11.812;2023-04-06T02:05:33;0.70;;;0.70;;
15841;SDS011;8021;48.022;11.812;2023-04-06T02:08:14;0.70;;;0.70;;
15841;SDS011;8021;48.022;11.812;2023-04-06T02:10:43;0.70;;;0.70;;
15841;SDS011;8021;48.022;11.812;2023-04-06T02:13:19;1.00;;;1.00;;
15841;SDS011;8021;48.022;11.812;2023-04-06T02:15:50;0.70;;;0.70;;
15841;SDS011;8021;48.022;11.812;2023-04-06T02:18:19;0.70;;;0.70;;
15841;SDS011;8021;48.022;11.812;2023-04-06T02:20:46;0.70;;;0.70;;
15841;SDS011;8021;48.022;11.812;2023-04-06T02:23:14;0.73;;;0.73;;
15841;SDS011;8021;48.022;11.812;2023-04-06T02:25:43;0.70;;;0.70;;
15841;SDS011;8021;48.022;11.812;2023-04-06T02:28:11;0.90;;;0.90;;
15841;SDS011;8021;48.022;11.812;2023-04-06T02:30:38;0.70;;;0.70;;
15841;SDS011;8021;48.022;11.812;2023-04-06T02:33:06;0.60;;;0.60;;
15841;SDS011;8021;48.022;11.812;2023-04-06T02:35:41;0.80;;;0.80;;
15841;SDS011;8021;48.022;11.812;2023-04-06T02:38:08;1.00;;;1.00;;
15841;SDS011;8021;48.022;11.812;2023-04-06T02:40:36;0.70;;;0.70;;
15841;SDS011;8021;48.022;11.812;2023-04-06T02:43:34;0.83;;;0.83;;
15841;SDS011;8021;48.022;11.812;2023-04-06T02:46:15;0.80;;;0.80;;
15841;SDS011;8021;48.022;11.812;2023-04-06T02:48:43;0.80;;;0.80;;
15841;SDS011;8021;48.022;11.812;2023-04-06T02:51:12;1.00;;;1.00;;
15841;SDS011;8021;48.022;11.812;2023-04-06T02:53:45;0.77;;;0.77;;
15841;SDS011;8021;48.022;11.812;2023-04-06T02:56:13;0.70;;;0.70;;
15841;SDS011;8021;48.022;11.812;2023-04-06T02:58:49;0.87;;;0.87;;
15841;SDS011;8021;48.022;11.812;2023-04-06T03:01:18;0.70;;;0.70;;
15841;SDS011;8021;48.022;11.812;2023-04-06T03:03:51;0.60;;;0.60;;
15841;SDS011;8021;48.022;11.812;2023-04-06T03:06:23;0.90;;;0.90;;
15841;SDS011;8021;48.022;11.812;2023-04-06T03:08:55;0.90;;;0.90;;
15841;SDS011;8021;48.022;11.812;2023-04-06T03:11:23;0.90;;;0.90;;
15841;SDS011;8021;48.022;11.812;2023-04-06T03:13:54;0.80;;;0.80;;
15841;SDS011;8021;48.022;11.812;2023-04-06T03:16:21;0.70;;;0.70;;
15841;SDS011;8021;48.022;11.812;2023-04-06T03:18:49;0.87;;;0.87;;
15841;SDS011;8021;48.022;11.812;2023-04-06T03:21:17;0.70;;;0.70;;
15841;SDS011;8021;48.022;11.812;2023-04-06T03:23:48;0.70;;;0.70;;
15841;SDS011;8021;48.022;11.812;2023-04-06T03:26:17;0.80;;;0.80;;
15841;SDS011;8021;48.022;11.812;2023-04-06T03:28:44;0.70;;;0.70;;
15841;SDS011;8021;48.022;11.812;2023-04-06T03:31:14;0.60;;;0.60;;
15841;SDS011;8021;48.022;11.812;2023-04-06T03:33:52;0.77;;;0.77;;
15841;SDS011;8021;48.022;11.812;2023-04-06T03:36:31;0.70;;;0.70;;
15841;SDS011;8021;48.022;11.812;2023-04-06T03:39:00;0.80;;;0.80;;
15841;SDS011;8021;48.022;11.812;2023-04-06T03:41:30;0.70;;;0.70;;
15841;SDS011;8021;48.022;11.812;2023-04-06T03:44:04;0.63;;;0.63;;
15841;SDS011;8021;48.022;11.812;2023-04-06T03:46:34;1.00;;;1.00;;
15841;SDS011;8021;48.022;11.812;2023-04-06T03:49:01;0.60;;;0.60;;
15841;SDS011;8021;48.022;11.812;2023-04-06T03:51:29;0.73;;;0.73;;
15841;SDS011;8021;48.022;11.812;2023-04-06T03:53:57;0.60;;;0.60;;
15841;SDS011;8021;48.022;11.812;2023-04-06T03:56:24;0.60;;;0.60;;
15841;SDS011;8021;48.022;11.812;2023-04-06T03:58:53;0.70;;;0.70;;
15841;SDS011;8021;48.022;11.812;2023-04-06T04:01:20;0.77;;;0.77;;
15841;SDS011;8021;48.022;11.812;2023-04-06T04:03:49;0.77;;;0.77;;
15841;SDS011;8021;48.022;11.812;2023-04-06T04:06:17;0.77;;;0.77;;
15841;SDS011;8021;48.022;11.812;2023-04-06T04:08:45;0.73;;;0.73;;
15841;SDS011;8021;48.022;11.812;2023-04-06T04:11:13;0.70;;;0.70;;
15841;SDS011;8021;48.022;11.812;2023-04-06T04:13:42;0.60;;;0.60;;
15841;SDS011;8021;48.022;11.812;2023-04-06T04:16:09;0.60;;;0.60;;
15841;SDS011;8021;48.022;11.812;2023-04-06T04:18:37;0.70;;;0.70;;
15841;SDS011;8021;48.022;11.812;2023-04-06T04:21:06;0.60;;;0.60;;
15841;SDS011;8021;48.022;11.812;2023-04-06T04:23:34;0.87;;;0.87;;
15841;SDS011;8021;48.022;11.812;2023-04-06T04:26:03;0.70;;;0.70;;
15841;SDS011;8021;48.022;11.812;2023-04-06T04:28:31;0.67;;;0.67;;
15841;SDS011;8021;48.022;11.812;2023-04-06T04:30:58;0.67;;;0.67;;
15841;SDS011;8021;48.022;11.812;2023-04-06T04:33:30;0.63;;;0.63;;
15841;SDS011;8021;48.022;11.812;2023-04-06T04:36:00;0.63;;;0.63;;
15841;SDS011;8021;48.022;11.812;2023-04-06T04:38:36;0.80;;;0.80;;
15841;SDS011;8021;48.022;11.812;2023-04-06T04:41:04;0.63;;;0.63;;
15841;SDS011;8021;48.022;11.812;2023-04-06T04:43:34;1.00;;;1.00;;
15841;SDS011;8021;48.022;11.812;2023-04-06T04:46:02;0.70;;;0.70;;
15841;SDS011;8021;48.022;11.812;2023-04-06T04:48:37;0.70;;;0.70;;
15841;SDS011;8021;48.022;11.812;2023-04-06T04:51:06;0.63;;;0.63;;
15841;SDS011;8021;48.022;11.812;2023-04-06T04:54:02;0.90;;;0.90;;
15841;SDS011;8021;48.022;11.812;2023-04-06T04:56:31;0.87;;;0.87;;
15841;SDS011;8021;48.022;11.812;2023-04-06T04:59:31;0.80;;;0.80;;
15841;SDS011;8021;48.022;11.812;2023-04-06T05:02:05;0.90;;;0.90;;
15841;SDS011;8021;48.022;11.812;2023-04-06T05:04:42;0.60;;;0.60;;
15841;SDS011;8021;48.022;11.812;2023-04-06T05:07:16;0.70;;;0.70;;
15841;SDS011;8021;48.022;11.812;2023-04-06T05:09:46;0.77;;;0.77;;
15841;SDS011;8021;48.022;11.812;2023-04-06T05:12:14;0.70;;;0.70;;
15841;SDS011;8021;48.022;11.812;2023-04-06T05:14:53;0.70;;;0.70;;
15841;SDS011;8021;48.022;11.812;2023-04-06T05:17:22;0.70;;;0.70;;
15841;SDS011;8021;48.022;11.812;2023-04-06T05:19:49;0.90;;;0.90;;
15841;SDS011;8021;48.022;11.812;2023-04-06T05:22:22;0.80;;;0.80;;
15841;SDS011;8021;48.022;11.812;2023-04-06T05:25:01;0.60;;;0.60;;
15841;SDS011;8021;48.022;11.812;2023-04-06T05:27:30;0.60;;;0.60;;
15841;SDS011;8021;48.022;11.812;2023-04-06T05:30:03;0.70;;;0.70;;
15841;SDS011;8021;48.022;11.812;2023-04-06T05:32:36;0.60;;;0.60;;
15841;SDS011;8021;48.022;11.812;2023-04-06T05:35:05;0.50;;;0.50;;
15841;SDS011;8021;48.022;11.812;2023-04-06T05:37:34;0.60;;;0.60;;
15841;SDS011;8021;48.022;11.812;2023-04-06T05:40:04;0.50;;;0.50;;
15841;SDS011;8021;48.022;11.812;2023-04-06T05:42:36;0.50;;;0.50;;
15841;SDS011;8021;48.022;11.812;2023-04-06T05:45:04;0.40;;;0.40;;
15841;SDS011;8021;48.022;11.812;2023-04-06T05:47:32;0.30;;;0.30;;
15841;SDS011;8021;48.022;11.812;2023-04-06T05:50:10;0.30;;;0.30;;
15841;SDS011;8021;48.022;11.812;2023-04-06T05:52:39;0.30;;;0.30;;
15841;SDS011;8021;48.022;11.812;2023-04-06T05:55:12;0.30;;;0.30;;
15841;SDS011;8021;48.022;11.812;2023-04-06T05:57:44;0.30;;;0.30;;
15841;SDS011;8021;48.022;11.812;2023-04-06T06:00:15;0.30;;;0.30;;
15841;SDS011;8021;48.022;11.812;2023-04-06T06:02:52;0.30;;;0.30;;
15841;SDS011;8021;48.022;11.812;2023-04-06T06:05:24;0.30;;;0.25;;
15841;SDS011;8021;48.022;11.812;2023-04-06T06:07:53;0.28;;;0.28;;
15841;SDS011;8021;48.022;11.812;2023-04-06T06:10:22;0.30;;;0.30;;
15841;SDS011;8021;48.022;11.812;2023-04-06T06:12:50;0.20;;;0.20;;
15841;SDS011;8021;48.022;11.812;2023-04-06T06:15:18;0.20;;;0.20;;
15841;SDS011;8021;48.022;11.812;2023-04-06T06:17:47;0.20;;;0.20;;
15841;SDS011;8021;48.022;11.812;2023-04-06T06:20:14;0.20;;;0.20;;
15841;SDS011;8021;48.022;11.812;2023-04-06T06:22:43;0.30;;;0.20;;
15841;SDS011;8021;48.022;11.812;2023-04-06T06:25:16;0.20;;;0.20;;
15841;SDS011;8021;48.022;11.812;2023-04-06T06:27:47;0.20;;;0.10;;
15841;SDS011;8021;48.022;11.812;2023-04-06T06:30:17;0.15;;;0.10;;
15841;SDS011;8021;48.022;11.812;2023-04-06T06:32:48;0.20;;;0.17;;
15841;SDS011;8021;48.022;11.812;2023-04-06T06:35:16;0.20;;;0.20;;
15841;SDS011;8021;48.022;11.812;2023-04-06T06:37:45;0.20;;;0.20;;
15841;SDS011;8021;48.022;11.812;2023-04-06T06:40:16;0.13;;;0.13;;
15841;SDS011;8021;48.022;11.812;2023-04-06T06:42:47;0.10;;;0.10;;
15841;SDS011;8021;48.022;11.812;2023-04-06T06:45:30;0.20;;;0.20;;
15841;SDS011;8021;48.022;11.812;2023-04-06T06:47:58;0.20;;;0.20;;
15841;SDS011;8021;48.022;11.812;2023-04-06T06:50:25;0.20;;;0.13;;
15841;SDS011;8021;48.022;11.812;2023-04-06T06:52:53;0.15;;;0.15;;
15841;SDS011;8021;48.022;11.812;2023-04-06T06:55:21;0.20;;;0.20;;
15841;SDS011;8021;48.022;11.812;2023-04-06T06:57:50;0.10;;;0.10;;
15841;SDS011;8021;48.022;11.812;2023-04-06T07:00:17;0.10;;;0.10;;
15841;SDS011;8021;48.022;11.812;2023-04-06T07:02:47;0.17;;;0.17;;
15841;SDS011;8021;48.022;11.812;2023-04-06T07:05:14;0.10;;;0.10;;
15841;SDS011;8021;48.022;11.812;2023-04-06T07:07:49;0.10;;;0.10;;
15841;SDS011;8021;48.022;11.812;2023-04-06T07:10:17;0.20;;;0.20;;
15841;SDS011;8021;48.022;11.812;2023-04-06T07:12:44;0.17;;;0.17;;
15841;SDS011;8021;48.022;11.812;2023-04-06T07:15:14;0.20;;;0.20;;
15841;SDS011;8021;48.022;11.812;2023-04-06T07:17:41;0.30;;;0.30;;
15841;SDS011;8021;48.022;11.812;2023-04-06T07:20:11;0.30;;;0.20;;
15841;SDS011;8021;48.022;11.812;2023-04-06T07:22:39;0.30;;;0.20;;
15841;SDS011;8021;48.022;11.812;2023-04-06T07:25:07;0.20;;;0.20;;
15841;SDS011;8021;48.022;11.812;2023-04-06T07:27:35;0.20;;;0.15;;
15841;SDS011;8021;48.022;11.812;2023-04-06T07:30:03;0.20;;;0.20;;
15841;SDS011;8021;48.022;11.812;2023-04-06T07:32:32;0.20;;;0.20;;
15841;SDS011;8021;48.022;11.812;2023-04-06T07:35:01;0.13;;;0.10;;
15841;SDS011;8021;48.022;11.812;2023-04-06T07:37:29;0.15;;;0.10;;
15841;SDS011;8021;48.022;11.812;2023-04-06T07:39:56;0.13;;;0.13;;
15841;SDS011;8021;48.022;11.812;2023-04-06T07:42:24;0.20;;;0.20;;
15841;SDS011;8021;48.022;11.812;2023-04-06T07:44:52;0.17;;;0.10;;
15841;SDS011;8021;48.022;11.812;2023-04-06T07:47:19;0.25;;;0.20;;
15841;SDS011;8021;48.022;11.812;2023-04-06T07:49:49;0.20;;;0.20;;
15841;SDS011;8021;48.022;11.812;2023-04-06T07:52:17;0.20;;;0.20;;
15841;SDS011;8021;48.022;11.812;2023-04-06T07:54:44;0.30;;;0.30;;
15841;SDS011;8021;48.022;11.812;2023-04-06T07:57:12;0.20;;;0.20;;
15841;SDS011;8021;48.022;11.812;2023-04-06T07:59:39;0.20;;;0.17;;
15841;SDS011;8021;48.022;11.812;2023-04-06T08:02:07;0.20;;;0.10;;
15841;SDS011;8021;48.022;11.812;2023-04-06T08:04:35;0.15;;;0.15;;
15841;SDS011;8021;48.022;11.812;2023-04-06T08:07:04;0.20;;;0.20;;
15841;SDS011;8021;48.022;11.812;2023-04-06T08:09:31;0.10;;;0.10;;
15841;SDS011;8021;48.022;11.812;2023-04-06T08:11:59;0.10;;;0.10;;
15841;SDS011;8021;48.022;11.812;2023-04-06T08:14:26;0.10;;;0.10;;
15841;SDS011;8021;48.022;11.812;2023-04-06T08:16:54;0.10;;;0.10;;
15841;SDS011;8021;48.022;11.812;2023-04-06T08:19:22;0.08;;;0.08;;
15841;SDS011;8021;48.022;11.812;2023-04-06T08:21:49;0.10;;;0.10;;
15841;SDS011;8021;48.022;11.812;2023-04-06T08:24:18;0.10;;;0.10;;
15841;SDS011;8021;48.022;11.812;2023-04-06T08:26:46;0.10;;;0.10;;
15841;SDS011;8021;48.022;11.812;2023-04-06T08:29:13;0.10;;;0.10;;
15841;SDS011;8021;48.022;11.812;2023-04-06T08:31:42;0.10;;;0.10;;
15841;SDS011;8021;48.022;11.812;2023-04-06T08:34:10;0.10;;;0.10;;
15841;SDS011;8021;48.022;11.812;2023-04-06T08:36:39;0.10;;;0.10;;
15841;SDS011;8021;48.022;11.812;2023-04-06T08:39:08;0.10;;;0.10;;
15841;SDS011;8021;48.022;11.812;2023-04-06T08:41:37;0.10;;;0.10;;
15841;SDS011;8021;48.022;11.812;2023-04-06T08:44:04;0.10;;;0.10;;
15841;SDS011;8021;48.022;11.812;2023-04-06T08:46:32;0.10;;;0.10;;
15841;SDS011;8021;48.022;11.812;2023-04-06T08:49:00;0.10;;;0.10;;
15841;SDS011;8021;48.022;11.812;2023-04-06T08:51:29;0.10;;;0.10;;
15841;SDS011;8021;48.022;11.812;2023-04-06T08:53:57;0.10;;;0.10;;
15841;SDS011;8021;48.022;11.812;2023-04-06T08:56:25;0.10;;;0.10;;
15841;SDS011;8021;48.022;11.812;2023-04-06T08:58:55;0.10;;;0.10;;
15841;SDS011;8021;48.022;11.812;2023-04-06T09:01:23;0.10;;;0.10;;
15841;SDS011;8021;48.022;11.812;2023-04-06T09:03:54;0.10;;;0.10;;
15841;SDS011;8021;48.022;11.812;2023-04-06T09:06:23;0.10;;;0.10;;
15841;SDS011;8021;48.022;11.812;2023-04-06T09:08:50;0.10;;;0.10;;
15841;SDS011;8021;48.022;11.812;2023-04-06T09:11:18;0.10;;;0.10;;
15841;SDS011;8021;48.022;11.812;2023-04-06T09:13:46;0.20;;;0.20;;
15841;SDS011;8021;48.022;11.812;2023-04-06T09:16:15;0.10;;;0.10;;
15841;SDS011;8021;48.022;11.812;2023-04-06T09:18:43;0.10;;;0.10;;
15841;SDS011;8021;48.022;11.812;2023-04-06T09:21:11;0.10;;;0.10;;
15841;SDS011;8021;48.022;11.812;2023-04-06T09:23:38;0.10;;;0.10;;
15841;SDS011;8021;48.022;11.812;2023-04-06T09:26:07;0.10;;;0.10;;
15841;SDS011;8021;48.022;11.812;2023-04-06T09:28:44;0.20;;;0.20;;
15841;SDS011;8021;48.022;11.812;2023-04-06T09:31:12;0.20;;;0.13;;
15841;SDS011;8021;48.022;11.812;2023-04-06T09:33:42;0.30;;;0.20;;
15841;SDS011;8021;48.022;11.812;2023-04-06T09:36:10;0.30;;;0.28;;
15841;SDS011;8021;48.022;11.812;2023-04-06T09:38:38;0.30;;;0.30;;
15841;SDS011;8021;48.022;11.812;2023-04-06T09:41:05;0.20;;;0.20;;
15841;SDS011;8021;48.022;11.812;2023-04-06T09:43:33;0.30;;;0.30;;
15841;SDS011;8021;48.022;11.812;2023-04-06T09:46:01;0.30;;;0.30;;
15841;SDS011;8021;48.022;11.812;2023-04-06T09:48:30;0.30;;;0.30;;
15841;SDS011;8021;48.022;11.812;2023-04-06T09:51:03;0.30;;;0.30;;
15841;SDS011;8021;48.022;11.812;2023-04-06T09:53:31;0.30;;;0.30;;
15841;SDS011;8021;48.022;11.812;2023-04-06T09:56:01;0.30;;;0.30;;
15841;SDS011;8021;48.022;11.812;2023-04-06T09:58:31;0.30;;;0.30;;
15841;SDS011;8021;48.022;11.812;2023-04-06T10:01:01;0.30;;;0.30;;
15841;SDS011;8021;48.022;11.812;2023-04-06T10:03:31;0.30;;;0.30;;
15841;SDS011;8021;48.022;11.812;2023-04-06T10:06:08;0.30;;;0.30;;
15841;SDS011;8021;48.022;11.812;2023-04-06T10:08:38;0.40;;;0.40;;
15841;SDS011;8021;48.022;11.812;2023-04-06T10:11:07;0.30;;;0.30;;
15841;SDS011;8021;48.022;11.812;2023-04-06T10:13:36;0.30;;;0.30;;
15841;SDS011;8021;48.022;11.812;2023-04-06T10:16:03;0.30;;;0.30;;
15841;SDS011;8021;48.022;11.812;2023-04-06T10:18:32;0.30;;;0.30;;
15841;SDS011;8021;48.022;11.812;2023-04-06T10:21:00;0.30;;;0.30;;
15841;SDS011;8021;48.022;11.812;2023-04-06T10:23:31;0.30;;;0.30;;
15841;SDS011;8021;48.022;11.812;2023-04-06T10:26:00;0.30;;;0.30;;
15841;SDS011;8021;48.022;11.812;2023-04-06T10:28:30;0.30;;;0.20;;
15841;SDS011;8021;48.022;11.812;2023-04-06T10:30:58;0.30;;;0.20;;
15841;SDS011;8021;48.022;11.812;2023-04-06T10:33:26;0.30;;;0.30;;
15841;SDS011;8021;48.022;11.812;2023-04-06T10:35:54;0.30;;;0.20;;
15841;SDS011;8021;48.022;11.812;2023-04-06T10:38:33;0.20;;;0.20;;
15841;SDS011;8021;48.022;11.812;2023-04-06T10:41:06;0.20;;;0.20;;
15841;SDS011;8021;48.022;11.812;2023-04-06T10:43:34;0.20;;;0.20;;
15841;SDS011;8021;48.022;11.812;2023-04-06T10:46:02;0.25;;;0.20;;
15841;SDS011;8021;48.022;11.812;2023-04-06T10:48:40;0.28;;;0.20;;
15841;SDS011;8021;48.022;11.812;2023-04-06T10:51:08;0.30;;;0.20;;
15841;SDS011;8021;48.022;11.812;2023-04-06T10:53:37;0.30;;;0.20;;
15841;SDS011;8021;48.022;11.812;2023-04-06T10:56:07;0.20;;;0.20;;
15841;SDS011;8021;48.022;11.812;2023-04-06T10:58:37;0.20;;;0.20;;
15841;SDS011;8021;48.022;11.812;2023-04-06T11:01:05;0.30;;;0.20;;
15841;SDS011;8021;48.022;11.812;2023-04-06T11:03:41;0.20;;;0.20;;
15841;SDS011;8021;48.022;11.812;2023-04-06T11:06:09;0.20;;;0.20;;
15841;SDS011;8021;48.022;11.812;2023-04-06T11:08:38;0.20;;;0.10;;
15841;SDS011;8021;48.022;11.812;2023-04-06T11:11:07;0.20;;;0.15;;
15841;SDS011;8021;48.022;11.812;2023-04-06T11:13:39;0.20;;;0.13;;
15841;SDS011;8021;48.022;11.812;2023-04-06T11:16:06;0.20;;;0.20;;
15841;SDS011;8021;48.022;11.812;2023-04-06T11:18:34;0.20;;;0.20;;
15841;SDS011;8021;48.022;11.812;2023-04-06T11:21:02;0.20;;;0.20;;
15841;SDS011;8021;48.022;11.812;2023-04-06T11:23:29;0.30;;;0.25;;
15841;SDS011;8021;48.022;11.812;2023-04-06T11:25:58;0.20;;;0.20;;
15841;SDS011;8021;48.022;11.812;2023-04-06T11:28:26;0.28;;;0.20;;
15841;SDS011;8021;48.022;11.812;2023-04-06T11:30:54;0.20;;;0.20;;
15841;SDS011;8021;48.022;11.812;2023-04-06T11:33:21;0.30;;;0.20;;
15841;SDS011;8021;48.022;11.812;2023-04-06T11:35:49;0.28;;;0.28;;
15841;SDS011;8021;48.022;11.812;2023-04-06T11:38:17;0.30;;;0.20;;
15841;SDS011;8021;48.022;11.812;2023-04-06T11:40:45;0.20;;;0.20;;
15841;SDS011;8021;48.022;11.812;2023-04-06T11:43:14;0.20;;;0.20;;
15841;SDS011;8021;48.022;11.812;2023-04-06T11:45:42;0.20;;;0.20;;
15841;SDS011;8021;48.022;11.812;2023-04-06T11:48:17;0.30;;;0.20;;
15841;SDS011;8021;48.022;11.812;2023-04-06T11:50:46;0.20;;;0.20;;
15841;SDS011;8021;48.022;11.812;2023-04-06T11:53:13;0.20;;;0.20;;
15841;SDS011;8021;48.022;11.812;2023-04-06T11:55:41;0.20;;;0.17;;
15841;SDS011;8021;48.022;11.812;2023-04-06T11:58:11;0.20;;;0.20;;
15841;SDS011;8021;48.022;11.812;2023-04-06T12:00:40;0.20;;;0.20;;
15841;SDS011;8021;48.022;11.812;2023-04-06T12:03:13;0.30;;;0.20;;
15841;SDS011;8021;48.022;11.812;2023-04-06T12:05:41;0.20;;;0.20;;
15841;SDS011;8021;48.022;11.812;2023-04-06T12:08:08;0.20;;;0.20;;
15841;SDS011;8021;48.022;11.812;2023-04-06T12:10:36;0.20;;;0.20;;
15841;SDS011;8021;48.022;11.812;2023-04-06T12:13:03;0.20;;;0.20;;
15841;SDS011;8021;48.022;11.812;2023-04-06T12:15:31;0.20;;;0.20;;
15841;SDS011;8021;48.022;11.812;2023-04-06T12:18:01;0.20;;;0.20;;
15841;SDS011;8021;48.022;11.812;2023-04-06T12:20:29;0.20;;;0.20;;
15841;SDS011;8021;48.022;11.812;2023-04-06T12:22:56;0.20;;;0.20;;
15841;SDS011;8021;48.022;11.812;2023-04-06T12:25:24;0.20;;;0.20;;
15841;SDS011;8021;48.022;11.812;2023-04-06T12:27:51;0.30;;;0.20;;
15841;SDS011;8021;48.022;11.812;2023-04-06T12:30:19;0.20;;;0.10;;
15841;SDS011;8021;48.022;11.812;2023-04-06T12:32:47;0.30;;;0.20;;
15841;SDS011;8021;48.022;11.812;2023-04-06T12:35:18;0.30;;;0.20;;
15841;SDS011;8021;48.022;11.812;2023-04-06T12:37:45;0.20;;;0.20;;
15841;SDS011;8021;48.022;11.812;2023-04-06T12:40:13;0.20;;;0.20;;
15841;SDS011;8021;48.022;11.812;2023-04-06T12:42:41;0.20;;;0.10;;
15841;SDS011;8021;48.022;11.812;2023-04-06T12:45:09;0.20;;;0.20;;
15841;SDS011;8021;48.022;11.812;2023-04-06T12:47:37;0.30;;;0.20;;
15841;SDS011;8021;48.022;11.812;2023-04-06T12:50:05;0.30;;;0.30;;
15841;SDS011;8021;48.022;11.812;2023-04-06T12:52:34;0.30;;;0.20;;
15841;SDS011;8021;48.022;11.812;2023-04-06T12:55:03;0.25;;;0.20;;
15841;SDS011;8021;48.022;11.812;2023-04-06T12:57:31;0.30;;;0.30;;
15841;SDS011;8021;48.022;11.812;2023-04-06T12:59:58;0.20;;;0.20;;
15841;SDS011;8021;48.022;11.812;2023-04-06T13:02:26;0.30;;;0.20;;
15841;SDS011;8021;48.022;11.812;2023-04-06T13:04:54;0.30;;;0.20;;
15841;SDS011;8021;48.022;11.812;2023-04-06T13:07:22;0.20;;;0.20;;
15841;SDS011;8021;48.022;11.812;2023-04-06T13:09:50;0.28;;;0.20;;
15841;SDS011;8021;48.022;11.812;2023-04-06T13:12:18;0.20;;;0.20;;
15841;SDS011;8021;48.022;11.812;2023-04-06T13:14:46;0.30;;;0.20;;
15841;SDS011;8021;48.022;11.812;2023-04-06T13:17:17;0.20;;;0.20;;
15841;SDS011;8021;48.022;11.812;2023-04-06T13:19:44;0.30;;;0.20;;
15841;SDS011;8021;48.022;11.812;2023-04-06T13:22:12;0.20;;;0.20;;
15841;SDS011;8021;48.022;11.812;2023-04-06T13:24:39;0.30;;;0.20;;
15841;SDS011;8021;48.022;11.812;2023-04-06T13:27:08;0.30;;;0.25;;
15841;SDS011;8021;48.022;11.812;2023-04-06T13:29:37;0.30;;;0.20;;
15841;SDS011;8021;48.022;11.812;2023-04-06T13:32:05;0.20;;;0.20;;
15841;SDS011;8021;48.022;11.812;2023-04-06T13:34:32;0.20;;;0.20;;
15841;SDS011;8021;48.022;11.812;2023-04-06T13:37:00;0.30;;;0.22;;
15841;SDS011;8021;48.022;11.812;2023-04-06T13:39:28;0.30;;;0.20;;
15841;SDS011;8021;48.022;11.812;2023-04-06T13:41:55;0.20;;;0.20;;
15841;SDS011;8021;48.022;11.812;2023-04-06T13:44:25;0.20;;;0.10;;
15841;SDS011;8021;48.022;11.812;2023-04-06T13:46:52;0.20;;;0.20;;
15841;SDS011;8021;48.022;11.812;2023-04-06T13:52:08;0.20;;;0.17;;
15841;SDS011;8021;48.022;11.812;2023-04-06T13:54:37;0.20;;;0.20;;
15841;SDS011;8021;48.022;11.812;2023-04-06T13:57:05;0.32;;;0.32;;
15841;SDS011;8021;48.022;11.812;2023-04-06T13:59:35;0.20;;;0.20;;
15841;SDS011;8021;48.022;11.812;2023-04-06T14:02:03;0.20;;;0.20;;
15841;SDS011;8021;48.022;11.812;2023-04-06T14:04:31;0.30;;;0.30;;
15841;SDS011;8021;48.022;11.812;2023-04-06T14:06:59;0.20;;;0.20;;
15841;SDS011;8021;48.022;11.812;2023-04-06T14:09:27;0.30;;;0.22;;
15841;SDS011;8021;48.022;11.812;2023-04-06T14:11:54;0.20;;;0.20;;
15841;SDS011;8021;48.022;11.812;2023-04-06T14:14:22;0.20;;;0.20;;
15841;SDS011;8021;48.022;11.812;2023-04-06T14:16:51;0.20;;;0.20;;
15841;SDS011;8021;48.022;11.812;2023-04-06T14:19:19;0.30;;;0.20;;
15841;SDS011;8021;48.022;11.812;2023-04-06T14:21:46;0.30;;;0.20;;
15841;SDS011;8021;48.022;11.812;2023-04-06T14:24:14;0.20;;;0.20;;
15841;SDS011;8021;48.022;11.812;2023-04-06T14:26:42;0.30;;;0.20;;
15841;SDS011;8021;48.022;11.812;2023-04-06T14:29:10;0.30;;;0.20;;
15841;SDS011;8021;48.022;11.812;2023-04-06T14:31:37;0.30;;;0.30;;
15841;SDS011;8021;48.022;11.812;2023-04-06T14:34:06;0.30;;;0.20;;
15841;SDS011;8021;48.022;11.812;2023-04-06T14:36:34;0.30;;;0.30;;
15841;SDS011;8021;48.022;11.812;2023-04-06T14:39:04;0.30;;;0.20;;
15841;SDS011;8021;48.022;11.812;2023-04-06T14:41:32;0.30;;;0.22;;
15841;SDS011;8021;48.022;11.812;2023-04-06T14:44:00;0.30;;;0.20;;
15841;SDS011;8021;48.022;11.812;2023-04-06T14:46:29;0.30;;;0.30;;
15841;SDS011;8021;48.022;11.812;2023-04-06T14:48:56;0.30;;;0.30;;
15841;SDS011;8021;48.022;11.812;2023-04-06T14:51:26;0.30;;;0.30;;
15841;SDS011;8021;48.022;11.812;2023-04-06T14:53:54;0.38;;;0.38;;
15841;SDS011;8021;48.022;11.812;2023-04-06T14:56:22;0.30;;;0.20;;
15841;SDS011;8021;48.022;11.812;2023-04-06T14:58:49;0.20;;;0.20;;
15841;SDS011;8021;48.022;11.812;2023-04-06T15:01:18;0.20;;;0.20;;
15841;SDS011;8021;48.022;11.812;2023-04-06T15:03:45;0.30;;;0.20;;
15841;SDS011;8021;48.022;11.812;2023-04-06T15:06:14;0.20;;;0.20;;